sensor_id;sensor_type;location;lat;lon;timestamp;temperature;humidity
37642;DHT22;23486;51.956;5.888;2023-02-11T00:00:15;6.80;99.90
37642;DHT22;23486;51.956;5.888;2023-02-11T00:02:41;6.80;99.90
37642;DHT22;23486;51.956;5.888;2023-02-11T00:05:07;6.80;99.90
37642;DHT22;23486;51.956;5.888;2023-02-11T00:07:33;6.80;99.90
37642;DHT22;23486;51.956;5.888;2023-02-11T00:10:03;6.80;99.90
37642;DHT22;23486;51.956;5.888;2023-02-11T00:12:30;6.80;99.90
37642;DHT22;23486;51.956;5.888;2023-02-11T00:14:56;6.80;99.90
37642;DHT22;23486;51.956;5.888;2023-02-11T00:17:21;6.80;99.90
37642;DHT22;23486;51.956;5.888;2023-02-11T00:19:50;6.80;99.90
37642;DHT22;23486;51.956;5.888;2023-02-11T00:22:17;6.80;99.90
37642;DHT22;23486;51.956;5.888;2023-02-11T00:24:42;6.80;99.90
37642;DHT22;23486;51.956;5.888;2023-02-11T00:27:08;6.80;99.90
37642;DHT22;23486;51.956;5.888;2023-02-11T00:29:33;6.80;99.90
37642;DHT22;23486;51.956;5.888;2023-02-11T00:31:59;6.80;99.90
37642;DHT22;23486;51.956;5.888;2023-02-11T00:34:32;6.80;99.90
37642;DHT22;23486;51.956;5.888;2023-02-11T00:37:01;6.80;99.90
37642;DHT22;23486;51.956;5.888;2023-02-11T00:39:26;6.80;99.90
37642;DHT22;23486;51.956;5.888;2023-02-11T00:41:52;6.80;99.90
37642;DHT22;23486;51.956;5.888;2023-02-11T00:44:17;6.80;99.90
37642;DHT22;23486;51.956;5.888;2023-02-11T00:46:43;6.80;99.90
37642;DHT22;23486;51.956;5.888;2023-02-11T00:49:09;6.80;99.90
37642;DHT22;23486;51.956;5.888;2023-02-11T00:51:36;6.80;99.90
37642;DHT22;23486;51.956;5.888;2023-02-11T00:54:01;6.80;99.90
37642;DHT22;23486;51.956;5.888;2023-02-11T00:56:27;6.80;99.90
37642;DHT22;23486;51.956;5.888;2023-02-11T00:58:53;6.80;99.90
37642;DHT22;23486;51.956;5.888;2023-02-11T01:01:19;6.80;99.90
37642;DHT22;23486;51.956;5.888;2023-02-11T01:03:44;6.80;99.90
37642;DHT22;23486;51.956;5.888;2023-02-11T01:06:10;6.80;99.90
37642;DHT22;23486;51.956;5.888;2023-02-11T01:08:36;6.80;99.90
37642;DHT22;23486;51.956;5.888;2023-02-11T01:11:05;6.80;99.90
37642;DHT22;23486;51.956;5.888;2023-02-11T01:13:33;6.80;99.90
37642;DHT22;23486;51.956;5.888;2023-02-11T01:15:59;6.80;99.90
37642;DHT22;23486;51.956;5.888;2023-02-11T01:18:28;6.80;99.90
37642;DHT22;23486;51.956;5.888;2023-02-11T01:20:54;6.80;99.90
37642;DHT22;23486;51.956;5.888;2023-02-11T01:23:19;6.80;99.90
37642;DHT22;23486;51.956;5.888;2023-02-11T01:25:45;6.80;99.90
37642;DHT22;23486;51.956;5.888;2023-02-11T01:28:23;6.80;99.90
37642;DHT22;23486;51.956;5.888;2023-02-11T01:30:50;6.70;99.90
37642;DHT22;23486;51.956;5.888;2023-02-11T01:33:16;6.70;99.90
37642;DHT22;23486;51.956;5.888;2023-02-11T01:35:42;6.70;99.90
37642;DHT22;23486;51.956;5.888;2023-02-11T01:38:17;6.60;99.90
37642;DHT22;23486;51.956;5.888;2023-02-11T01:40:51;6.60;99.90
37642;DHT22;23486;51.956;5.888;2023-02-11T01:43:17;6.60;99.90
37642;DHT22;23486;51.956;5.888;2023-02-11T01:48:33;6.60;99.90
37642;DHT22;23486;51.956;5.888;2023-02-11T01:51:10;6.60;99.90
37642;DHT22;23486;51.956;5.888;2023-02-11T01:53:39;6.60;99.90
37642;DHT22;23486;51.956;5.888;2023-02-11T01:56:26;6.70;99.90
37642;DHT22;23486;51.956;5.888;2023-02-11T01:59:23;6.70;99.90
37642;DHT22;23486;51.956;5.888;2023-02-11T02:01:58;6.60;99.90
37642;DHT22;23486;51.956;5.888;2023-02-11T02:04:27;6.60;99.90
37642;DHT22;23486;51.956;5.888;2023-02-11T02:07:01;6.70;99.90
37642;DHT22;23486;51.956;5.888;2023-02-11T02:09:31;6.60;99.90
37642;DHT22;23486;51.956;5.888;2023-02-11T02:11:59;6.60;99.90
37642;DHT22;23486;51.956;5.888;2023-02-11T02:14:25;6.70;99.90
37642;DHT22;23486;51.956;5.888;2023-02-11T02:16:51;6.70;99.90
37642;DHT22;23486;51.956;5.888;2023-02-11T02:28:02;6.60;99.90
37642;DHT22;23486;51.956;5.888;2023-02-11T02:36:36;6.70;99.90
37642;DHT22;23486;51.956;5.888;2023-02-11T02:39:11;6.70;99.90
37642;DHT22;23486;51.956;5.888;2023-02-11T02:41:38;6.60;99.90
37642;DHT22;23486;51.956;5.888;2023-02-11T02:44:06;6.60;99.90
37642;DHT22;23486;51.956;5.888;2023-02-11T02:46:33;6.60;99.90
37642;DHT22;23486;51.956;5.888;2023-02-11T02:48:59;6.60;99.90
37642;DHT22;23486;51.956;5.888;2023-02-11T02:57:58;6.60;99.90
37642;DHT22;23486;51.956;5.888;2023-02-11T03:06:12;6.60;99.90
37642;DHT22;23486;51.956;5.888;2023-02-11T03:08:50;6.60;99.90
37642;DHT22;23486;51.956;5.888;2023-02-11T03:11:19;6.60;99.90
37642;DHT22;23486;51.956;5.888;2023-02-11T03:13:46;6.60;99.90
37642;DHT22;23486;51.956;5.888;2023-02-11T03:16:18;6.60;99.90
37642;DHT22;23486;51.956;5.888;2023-02-11T03:19:05;6.60;99.90
37642;DHT22;23486;51.956;5.888;2023-02-11T03:21:35;6.60;99.90
37642;DHT22;23486;51.956;5.888;2023-02-11T03:24:11;6.60;99.90
37642;DHT22;23486;51.956;5.888;2023-02-11T03:26:49;6.60;99.90
37642;DHT22;23486;51.956;5.888;2023-02-11T03:29:22;6.60;99.90
37642;DHT22;23486;51.956;5.888;2023-02-11T03:32:01;6.60;99.90
37642;DHT22;23486;51.956;5.888;2023-02-11T03:35:03;6.50;99.90
37642;DHT22;23486;51.956;5.888;2023-02-11T03:37:35;6.50;99.90
37642;DHT22;23486;51.956;5.888;2023-02-11T03:40:24;6.50;99.90
37642;DHT22;23486;51.956;5.888;2023-02-11T03:43:06;6.50;99.90
37642;DHT22;23486;51.956;5.888;2023-02-11T03:45:35;6.50;99.90
37642;DHT22;23486;51.956;5.888;2023-02-11T03:48:06;6.50;99.90
37642;DHT22;23486;51.956;5.888;2023-02-11T03:50:36;6.50;99.90
37642;DHT22;23486;51.956;5.888;2023-02-11T03:53:03;6.50;99.90
37642;DHT22;23486;51.956;5.888;2023-02-11T03:55:32;6.50;99.90
37642;DHT22;23486;51.956;5.888;2023-02-11T03:57:59;6.50;99.90
37642;DHT22;23486;51.956;5.888;2023-02-11T04:00:33;6.50;99.90
37642;DHT22;23486;51.956;5.888;2023-02-11T04:03:04;6.50;99.90
37642;DHT22;23486;51.956;5.888;2023-02-11T04:05:30;6.50;99.90
37642;DHT22;23486;51.956;5.888;2023-02-11T04:07:57;6.50;99.90
37642;DHT22;23486;51.956;5.888;2023-02-11T04:10:22;6.50;99.90
37642;DHT22;23486;51.956;5.888;2023-02-11T04:12:48;6.50;99.90
37642;DHT22;23486;51.956;5.888;2023-02-11T04:15:14;6.60;99.90
37642;DHT22;23486;51.956;5.888;2023-02-11T04:17:39;6.50;99.90
37642;DHT22;23486;51.956;5.888;2023-02-11T04:20:05;6.50;99.90
37642;DHT22;23486;51.956;5.888;2023-02-11T04:22:31;6.50;99.90
37642;DHT22;23486;51.956;5.888;2023-02-11T04:24:56;6.50;99.90
37642;DHT22;23486;51.956;5.888;2023-02-11T04:27:22;6.50;99.90
37642;DHT22;23486;51.956;5.888;2023-02-11T04:29:48;6.60;99.90
37642;DHT22;23486;51.956;5.888;2023-02-11T04:32:14;6.60;99.90
37642;DHT22;23486;51.956;5.888;2023-02-11T04:34:39;6.60;99.90
37642;DHT22;23486;51.956;5.888;2023-02-11T04:37:05;6.60;99.90
37642;DHT22;23486;51.956;5.888;2023-02-11T04:39:31;6.60;99.90
37642;DHT22;23486;51.956;5.888;2023-02-11T04:41:56;6.60;99.90
37642;DHT22;23486;51.956;5.888;2023-02-11T04:44:22;6.60;99.90
37642;DHT22;23486;51.956;5.888;2023-02-11T04:46:48;6.60;99.90
37642;DHT22;23486;51.956;5.888;2023-02-11T04:49:15;6.60;99.90
37642;DHT22;23486;51.956;5.888;2023-02-11T04:51:40;6.60;99.90
37642;DHT22;23486;51.956;5.888;2023-02-11T04:54:06;6.60;99.90
37642;DHT22;23486;51.956;5.888;2023-02-11T04:56:35;6.60;99.90
37642;DHT22;23486;51.956;5.888;2023-02-11T04:59:01;6.60;99.90
37642;DHT22;23486;51.956;5.888;2023-02-11T05:01:27;6.60;99.90
37642;DHT22;23486;51.956;5.888;2023-02-11T05:03:52;6.60;99.90
37642;DHT22;23486;51.956;5.888;2023-02-11T05:06:18;6.60;99.90
37642;DHT22;23486;51.956;5.888;2023-02-11T05:08:44;6.60;99.90
37642;DHT22;23486;51.956;5.888;2023-02-11T05:11:30;6.60;99.90
37642;DHT22;23486;51.956;5.888;2023-02-11T05:13:57;6.60;99.90
37642;DHT22;23486;51.956;5.888;2023-02-11T05:16:22;6.60;99.90
37642;DHT22;23486;51.956;5.888;2023-02-11T05:18:48;6.50;99.90
37642;DHT22;23486;51.956;5.888;2023-02-11T05:21:16;6.50;99.90
37642;DHT22;23486;51.956;5.888;2023-02-11T05:23:43;6.60;99.90
37642;DHT22;23486;51.956;5.888;2023-02-11T05:26:10;6.60;99.90
37642;DHT22;23486;51.956;5.888;2023-02-11T05:28:36;6.60;99.90
37642;DHT22;23486;51.956;5.888;2023-02-11T05:31:08;6.60;99.90
37642;DHT22;23486;51.956;5.888;2023-02-11T05:33:34;6.50;99.90
37642;DHT22;23486;51.956;5.888;2023-02-11T05:36:02;6.60;99.90
37642;DHT22;23486;51.956;5.888;2023-02-11T05:38:28;6.60;99.90
37642;DHT22;23486;51.956;5.888;2023-02-11T05:40:53;6.60;99.90
37642;DHT22;23486;51.956;5.888;2023-02-11T05:43:19;6.60;99.90
37642;DHT22;23486;51.956;5.888;2023-02-11T05:45:45;6.60;99.90
37642;DHT22;23486;51.956;5.888;2023-02-11T05:48:11;6.60;99.90
37642;DHT22;23486;51.956;5.888;2023-02-11T05:50:37;6.60;99.90
37642;DHT22;23486;51.956;5.888;2023-02-11T05:53:02;6.60;99.90
37642;DHT22;23486;51.956;5.888;2023-02-11T05:55:28;6.60;99.90
37642;DHT22;23486;51.956;5.888;2023-02-11T05:57:53;6.60;99.90
37642;DHT22;23486;51.956;5.888;2023-02-11T06:00:19;6.60;99.90
37642;DHT22;23486;51.956;5.888;2023-02-11T06:02:45;6.60;99.90
37642;DHT22;23486;51.956;5.888;2023-02-11T06:05:10;6.60;99.90
37642;DHT22;23486;51.956;5.888;2023-02-11T06:07:36;6.60;99.90
37642;DHT22;23486;51.956;5.888;2023-02-11T06:10:02;6.60;99.90
37642;DHT22;23486;51.956;5.888;2023-02-11T06:12:27;6.60;99.90
37642;DHT22;23486;51.956;5.888;2023-02-11T06:14:53;6.60;99.90
37642;DHT22;23486;51.956;5.888;2023-02-11T06:17:18;6.60;99.90
37642;DHT22;23486;51.956;5.888;2023-02-11T06:19:44;6.60;99.90
37642;DHT22;23486;51.956;5.888;2023-02-11T06:22:10;6.60;99.90
37642;DHT22;23486;51.956;5.888;2023-02-11T06:24:35;6.60;99.90
37642;DHT22;23486;51.956;5.888;2023-02-11T06:27:03;6.60;99.90
37642;DHT22;23486;51.956;5.888;2023-02-11T06:29:28;6.60;99.90
37642;DHT22;23486;51.956;5.888;2023-02-11T06:31:54;6.60;99.90
37642;DHT22;23486;51.956;5.888;2023-02-11T06:34:19;6.60;99.90
37642;DHT22;23486;51.956;5.888;2023-02-11T06:36:45;6.60;99.90
37642;DHT22;23486;51.956;5.888;2023-02-11T06:39:11;6.60;99.90
37642;DHT22;23486;51.956;5.888;2023-02-11T06:41:37;6.60;99.90
37642;DHT22;23486;51.956;5.888;2023-02-11T06:44:03;6.60;99.90
37642;DHT22;23486;51.956;5.888;2023-02-11T06:46:29;6.60;99.90
37642;DHT22;23486;51.956;5.888;2023-02-11T06:48:55;6.60;99.90
37642;DHT22;23486;51.956;5.888;2023-02-11T06:51:20;6.60;99.90
37642;DHT22;23486;51.956;5.888;2023-02-11T06:53:46;6.60;99.90
37642;DHT22;23486;51.956;5.888;2023-02-11T06:56:21;6.60;99.90
37642;DHT22;23486;51.956;5.888;2023-02-11T06:58:55;6.60;99.90
37642;DHT22;23486;51.956;5.888;2023-02-11T07:01:23;6.60;99.90
37642;DHT22;23486;51.956;5.888;2023-02-11T07:03:49;6.60;99.90
37642;DHT22;23486;51.956;5.888;2023-02-11T07:06:20;6.60;99.90
37642;DHT22;23486;51.956;5.888;2023-02-11T07:08:47;6.60;99.90
37642;DHT22;23486;51.956;5.888;2023-02-11T07:11:21;6.60;99.90
37642;DHT22;23486;51.956;5.888;2023-02-11T07:13:49;6.60;99.90
37642;DHT22;23486;51.956;5.888;2023-02-11T07:16:16;6.60;99.90
37642;DHT22;23486;51.956;5.888;2023-02-11T07:18:43;6.60;99.90
37642;DHT22;23486;51.956;5.888;2023-02-11T07:21:12;6.60;99.90
37642;DHT22;23486;51.956;5.888;2023-02-11T07:23:38;6.60;99.90
37642;DHT22;23486;51.956;5.888;2023-02-11T07:26:07;6.60;99.90
37642;DHT22;23486;51.956;5.888;2023-02-11T07:28:33;6.60;99.90
37642;DHT22;23486;51.956;5.888;2023-02-11T07:31:14;6.60;99.90
37642;DHT22;23486;51.956;5.888;2023-02-11T07:33:41;6.60;99.90
37642;DHT22;23486;51.956;5.888;2023-02-11T07:36:07;6.70;99.90
37642;DHT22;23486;51.956;5.888;2023-02-11T07:38:35;6.60;99.90
37642;DHT22;23486;51.956;5.888;2023-02-11T07:41:03;6.60;99.90
37642;DHT22;23486;51.956;5.888;2023-02-11T07:43:30;6.70;99.90
37642;DHT22;23486;51.956;5.888;2023-02-11T07:45:55;6.70;99.90
37642;DHT22;23486;51.956;5.888;2023-02-11T07:48:21;6.70;99.90
37642;DHT22;23486;51.956;5.888;2023-02-11T07:50:46;6.70;99.90
37642;DHT22;23486;51.956;5.888;2023-02-11T07:53:12;6.70;99.90
37642;DHT22;23486;51.956;5.888;2023-02-11T07:55:38;6.70;99.90
37642;DHT22;23486;51.956;5.888;2023-02-11T07:58:03;6.80;99.90
37642;DHT22;23486;51.956;5.888;2023-02-11T08:00:29;6.80;99.90
37642;DHT22;23486;51.956;5.888;2023-02-11T08:02:56;6.80;99.90
37642;DHT22;23486;51.956;5.888;2023-02-11T08:05:25;6.80;99.90
37642;DHT22;23486;51.956;5.888;2023-02-11T08:07:53;6.80;99.90
37642;DHT22;23486;51.956;5.888;2023-02-11T08:10:19;6.80;99.90
37642;DHT22;23486;51.956;5.888;2023-02-11T08:12:45;6.80;99.90
37642;DHT22;23486;51.956;5.888;2023-02-11T08:15:11;6.90;99.90
37642;DHT22;23486;51.956;5.888;2023-02-11T08:17:36;6.90;99.90
37642;DHT22;23486;51.956;5.888;2023-02-11T08:20:03;6.90;99.90
37642;DHT22;23486;51.956;5.888;2023-02-11T08:22:33;6.90;99.90
37642;DHT22;23486;51.956;5.888;2023-02-11T08:25:01;7.00;99.90
37642;DHT22;23486;51.956;5.888;2023-02-11T08:27:26;7.00;99.90
37642;DHT22;23486;51.956;5.888;2023-02-11T08:29:55;7.00;99.90
37642;DHT22;23486;51.956;5.888;2023-02-11T08:32:21;7.00;99.90
37642;DHT22;23486;51.956;5.888;2023-02-11T08:34:53;7.10;99.90
37642;DHT22;23486;51.956;5.888;2023-02-11T08:37:19;7.10;99.90
37642;DHT22;23486;51.956;5.888;2023-02-11T08:39:44;7.10;99.90
37642;DHT22;23486;51.956;5.888;2023-02-11T08:42:12;7.10;99.90
37642;DHT22;23486;51.956;5.888;2023-02-11T08:44:38;7.10;99.90
37642;DHT22;23486;51.956;5.888;2023-02-11T08:47:04;7.20;99.90
37642;DHT22;23486;51.956;5.888;2023-02-11T08:49:35;7.20;99.90
37642;DHT22;23486;51.956;5.888;2023-02-11T08:52:01;7.30;99.90
37642;DHT22;23486;51.956;5.888;2023-02-11T08:54:31;7.30;99.90
37642;DHT22;23486;51.956;5.888;2023-02-11T08:56:57;7.40;99.90
37642;DHT22;23486;51.956;5.888;2023-02-11T08:59:22;7.40;99.90
37642;DHT22;23486;51.956;5.888;2023-02-11T09:01:51;7.40;99.90
37642;DHT22;23486;51.956;5.888;2023-02-11T09:04:17;7.50;99.90
37642;DHT22;23486;51.956;5.888;2023-02-11T09:06:45;7.50;99.90
37642;DHT22;23486;51.956;5.888;2023-02-11T09:09:12;7.50;99.90
37642;DHT22;23486;51.956;5.888;2023-02-11T09:11:39;7.50;99.90
37642;DHT22;23486;51.956;5.888;2023-02-11T09:14:06;7.60;99.90
37642;DHT22;23486;51.956;5.888;2023-02-11T09:16:34;7.60;99.90
37642;DHT22;23486;51.956;5.888;2023-02-11T09:19:02;7.70;99.90
37642;DHT22;23486;51.956;5.888;2023-02-11T09:21:29;7.70;99.90
37642;DHT22;23486;51.956;5.888;2023-02-11T09:23:55;7.70;99.90
37642;DHT22;23486;51.956;5.888;2023-02-11T09:26:30;7.70;99.90
37642;DHT22;23486;51.956;5.888;2023-02-11T09:28:57;7.80;99.90
37642;DHT22;23486;51.956;5.888;2023-02-11T09:31:27;7.80;99.90
37642;DHT22;23486;51.956;5.888;2023-02-11T09:33:58;7.90;99.90
37642;DHT22;23486;51.956;5.888;2023-02-11T09:36:27;7.90;99.90
37642;DHT22;23486;51.956;5.888;2023-02-11T09:38:54;7.90;99.90
37642;DHT22;23486;51.956;5.888;2023-02-11T09:43:47;8.00;99.90
37642;DHT22;23486;51.956;5.888;2023-02-11T09:46:15;8.00;99.90
37642;DHT22;23486;51.956;5.888;2023-02-11T09:48:44;8.10;99.90
37642;DHT22;23486;51.956;5.888;2023-02-11T09:51:19;8.10;99.90
37642;DHT22;23486;51.956;5.888;2023-02-11T09:53:48;8.10;99.90
37642;DHT22;23486;51.956;5.888;2023-02-11T09:56:15;8.10;99.90
37642;DHT22;23486;51.956;5.888;2023-02-11T09:58:42;8.20;99.90
37642;DHT22;23486;51.956;5.888;2023-02-11T10:11:43;8.30;99.90
37642;DHT22;23486;51.956;5.888;2023-02-11T10:14:54;8.30;99.90
37642;DHT22;23486;51.956;5.888;2023-02-11T10:22:47;8.40;99.90
37642;DHT22;23486;51.956;5.888;2023-02-11T10:25:35;8.40;99.90
37642;DHT22;23486;51.956;5.888;2023-02-11T10:28:16;8.40;99.90
37642;DHT22;23486;51.956;5.888;2023-02-11T10:30:48;8.40;99.90
37642;DHT22;23486;51.956;5.888;2023-02-11T10:35:49;8.50;99.90
37642;DHT22;23486;51.956;5.888;2023-02-11T10:38:14;8.60;99.90
37642;DHT22;23486;51.956;5.888;2023-02-11T10:40:40;8.60;99.90
37642;DHT22;23486;51.956;5.888;2023-02-11T10:43:13;8.60;99.90
37642;DHT22;23486;51.956;5.888;2023-02-11T10:45:51;8.60;99.90
37642;DHT22;23486;51.956;5.888;2023-02-11T10:48:42;8.80;99.90
37642;DHT22;23486;51.956;5.888;2023-02-11T10:51:19;8.80;99.90
37642;DHT22;23486;51.956;5.888;2023-02-11T10:53:46;8.80;99.90
37642;DHT22;23486;51.956;5.888;2023-02-11T10:56:25;8.90;99.90
37642;DHT22;23486;51.956;5.888;2023-02-11T10:59:04;8.90;99.90
37642;DHT22;23486;51.956;5.888;2023-02-11T11:01:50;8.90;99.90
37642;DHT22;23486;51.956;5.888;2023-02-11T11:12:24;9.10;99.90
37642;DHT22;23486;51.956;5.888;2023-02-11T11:14:56;9.20;99.90
37642;DHT22;23486;51.956;5.888;2023-02-11T11:17:24;9.30;99.90
37642;DHT22;23486;51.956;5.888;2023-02-11T11:20:10;9.30;99.90
37642;DHT22;23486;51.956;5.888;2023-02-11T11:22:39;9.40;99.90
37642;DHT22;23486;51.956;5.888;2023-02-11T11:25:27;9.40;99.90
37642;DHT22;23486;51.956;5.888;2023-02-11T11:27:56;9.40;99.90
37642;DHT22;23486;51.956;5.888;2023-02-11T11:30:27;9.40;99.90
37642;DHT22;23486;51.956;5.888;2023-02-11T11:32:55;9.40;99.90
37642;DHT22;23486;51.956;5.888;2023-02-11T11:35:30;9.40;99.90
37642;DHT22;23486;51.956;5.888;2023-02-11T11:38:01;9.50;99.90
37642;DHT22;23486;51.956;5.888;2023-02-11T11:40:32;9.50;99.90
37642;DHT22;23486;51.956;5.888;2023-02-11T11:43:05;9.60;99.90
37642;DHT22;23486;51.956;5.888;2023-02-11T11:45:31;9.70;99.90
37642;DHT22;23486;51.956;5.888;2023-02-11T11:48:19;9.80;99.90
37642;DHT22;23486;51.956;5.888;2023-02-11T11:50:53;9.80;99.90
37642;DHT22;23486;51.956;5.888;2023-02-11T11:56:24;9.80;99.90
37642;DHT22;23486;51.956;5.888;2023-02-11T11:58:53;9.80;99.90
37642;DHT22;23486;51.956;5.888;2023-02-11T12:09:28;10.20;99.90
37642;DHT22;23486;51.956;5.888;2023-02-11T12:22:28;10.70;99.90
37642;DHT22;23486;51.956;5.888;2023-02-11T12:27:53;10.70;99.90
37642;DHT22;23486;51.956;5.888;2023-02-11T12:30:56;10.70;99.90
37642;DHT22;23486;51.956;5.888;2023-02-11T12:33:53;10.70;99.90
37642;DHT22;23486;51.956;5.888;2023-02-11T12:41:49;10.80;99.90
37642;DHT22;23486;51.956;5.888;2023-02-11T12:45:08;10.70;99.90
37642;DHT22;23486;51.956;5.888;2023-02-11T12:47:56;10.70;99.90
37642;DHT22;23486;51.956;5.888;2023-02-11T12:56:00;10.80;99.90
37642;DHT22;23486;51.956;5.888;2023-02-11T12:58:30;10.80;99.90
37642;DHT22;23486;51.956;5.888;2023-02-11T13:06:36;11.00;99.90
37642;DHT22;23486;51.956;5.888;2023-02-11T13:09:05;11.00;99.90
37642;DHT22;23486;51.956;5.888;2023-02-11T13:11:40;11.10;99.90
37642;DHT22;23486;51.956;5.888;2023-02-11T13:16:51;11.00;99.90
37642;DHT22;23486;51.956;5.888;2023-02-11T13:22:13;10.90;99.90
37642;DHT22;23486;51.956;5.888;2023-02-11T13:37:51;10.90;99.90
37642;DHT22;23486;51.956;5.888;2023-02-11T13:40:23;10.90;99.90
37642;DHT22;23486;51.956;5.888;2023-02-11T13:42:58;11.00;99.90
37642;DHT22;23486;51.956;5.888;2023-02-11T13:45:41;10.90;99.90
37642;DHT22;23486;51.956;5.888;2023-02-11T13:48:23;10.90;99.90
37642;DHT22;23486;51.956;5.888;2023-02-11T13:50:52;10.90;99.90
37642;DHT22;23486;51.956;5.888;2023-02-11T13:53:18;10.90;99.90
37642;DHT22;23486;51.956;5.888;2023-02-11T13:55:52;10.80;99.90
37642;DHT22;23486;51.956;5.888;2023-02-11T13:58:34;10.80;99.90
37642;DHT22;23486;51.956;5.888;2023-02-11T14:01:04;10.80;99.90
37642;DHT22;23486;51.956;5.888;2023-02-11T14:03:35;10.70;99.90
37642;DHT22;23486;51.956;5.888;2023-02-11T14:22:18;10.60;99.90
37642;DHT22;23486;51.956;5.888;2023-02-11T14:25:01;10.60;99.90
37642;DHT22;23486;51.956;5.888;2023-02-11T14:31:09;10.70;99.90
37642;DHT22;23486;51.956;5.888;2023-02-11T14:36:13;10.60;99.90
37642;DHT22;23486;51.956;5.888;2023-02-11T14:41:48;10.70;99.90
37642;DHT22;23486;51.956;5.888;2023-02-11T14:44:21;10.80;99.90
37642;DHT22;23486;51.956;5.888;2023-02-11T14:46:50;10.80;99.90
37642;DHT22;23486;51.956;5.888;2023-02-11T14:49:27;10.80;99.90
37642;DHT22;23486;51.956;5.888;2023-02-11T14:54:43;10.80;99.90
37642;DHT22;23486;51.956;5.888;2023-02-11T14:57:14;10.80;99.90
37642;DHT22;23486;51.956;5.888;2023-02-11T14:59:53;10.90;99.90
37642;DHT22;23486;51.956;5.888;2023-02-11T15:02:27;10.80;99.90
37642;DHT22;23486;51.956;5.888;2023-02-11T15:05:13;10.70;99.90
37642;DHT22;23486;51.956;5.888;2023-02-11T15:07:48;10.70;99.90
37642;DHT22;23486;51.956;5.888;2023-02-11T15:10:27;10.70;99.90
37642;DHT22;23486;51.956;5.888;2023-02-11T15:12:54;10.70;99.90
37642;DHT22;23486;51.956;5.888;2023-02-11T15:15:20;10.70;99.90
37642;DHT22;23486;51.956;5.888;2023-02-11T15:17:50;10.70;99.90
37642;DHT22;23486;51.956;5.888;2023-02-11T15:20:23;10.70;99.90
37642;DHT22;23486;51.956;5.888;2023-02-11T15:22:58;10.60;99.90
37642;DHT22;23486;51.956;5.888;2023-02-11T15:25:26;10.70;99.90
37642;DHT22;23486;51.956;5.888;2023-02-11T15:27:54;10.70;99.90
37642;DHT22;23486;51.956;5.888;2023-02-11T15:32:54;10.70;99.90
37642;DHT22;23486;51.956;5.888;2023-02-11T15:35:27;10.70;99.90
37642;DHT22;23486;51.956;5.888;2023-02-11T15:37:54;10.80;99.90
37642;DHT22;23486;51.956;5.888;2023-02-11T15:40:23;10.70;99.90
37642;DHT22;23486;51.956;5.888;2023-02-11T15:42:57;10.70;99.90
37642;DHT22;23486;51.956;5.888;2023-02-11T15:45:41;10.60;99.90
37642;DHT22;23486;51.956;5.888;2023-02-11T15:51:02;10.60;99.90
37642;DHT22;23486;51.956;5.888;2023-02-11T15:53:35;10.60;99.90
37642;DHT22;23486;51.956;5.888;2023-02-11T15:56:05;10.50;99.90
37642;DHT22;23486;51.956;5.888;2023-02-11T15:58:40;10.50;99.90
37642;DHT22;23486;51.956;5.888;2023-02-11T16:01:08;10.40;99.90
37642;DHT22;23486;51.956;5.888;2023-02-11T16:03:34;10.40;99.90
37642;DHT22;23486;51.956;5.888;2023-02-11T16:06:20;10.40;99.90
37642;DHT22;23486;51.956;5.888;2023-02-11T16:09:03;10.30;99.90
37642;DHT22;23486;51.956;5.888;2023-02-11T16:11:34;10.20;99.90
37642;DHT22;23486;51.956;5.888;2023-02-11T16:14:01;10.10;99.90
37642;DHT22;23486;51.956;5.888;2023-02-11T16:16:32;10.00;99.90
37642;DHT22;23486;51.956;5.888;2023-02-11T16:19:00;9.90;99.90
37642;DHT22;23486;51.956;5.888;2023-02-11T16:21:32;9.90;99.90
37642;DHT22;23486;51.956;5.888;2023-02-11T16:24:04;9.80;99.90
37642;DHT22;23486;51.956;5.888;2023-02-11T16:26:39;9.80;99.90
37642;DHT22;23486;51.956;5.888;2023-02-11T16:29:16;9.80;99.90
37642;DHT22;23486;51.956;5.888;2023-02-11T16:31:45;9.70;99.90
37642;DHT22;23486;51.956;5.888;2023-02-11T16:34:19;9.70;99.90
37642;DHT22;23486;51.956;5.888;2023-02-11T16:36:46;9.60;99.90
37642;DHT22;23486;51.956;5.888;2023-02-11T16:39:12;9.60;99.90
37642;DHT22;23486;51.956;5.888;2023-02-11T16:41:38;9.60;99.90
37642;DHT22;23486;51.956;5.888;2023-02-11T16:44:03;9.50;99.90
37642;DHT22;23486;51.956;5.888;2023-02-11T16:46:30;9.50;99.90
37642;DHT22;23486;51.956;5.888;2023-02-11T16:48:56;9.50;99.90
37642;DHT22;23486;51.956;5.888;2023-02-11T16:51:23;9.30;99.90
37642;DHT22;23486;51.956;5.888;2023-02-11T16:53:48;9.30;99.90
37642;DHT22;23486;51.956;5.888;2023-02-11T16:56:17;9.20;99.90
37642;DHT22;23486;51.956;5.888;2023-02-11T16:58:43;9.20;99.90
37642;DHT22;23486;51.956;5.888;2023-02-11T17:01:10;9.10;99.90
37642;DHT22;23486;51.956;5.888;2023-02-11T17:03:39;9.00;99.90
37642;DHT22;23486;51.956;5.888;2023-02-11T17:06:09;9.00;99.90
37642;DHT22;23486;51.956;5.888;2023-02-11T17:08:35;8.90;99.90
37642;DHT22;23486;51.956;5.888;2023-02-11T17:11:02;8.90;99.90
37642;DHT22;23486;51.956;5.888;2023-02-11T17:13:28;8.80;99.90
37642;DHT22;23486;51.956;5.888;2023-02-11T17:15:53;8.70;99.90
37642;DHT22;23486;51.956;5.888;2023-02-11T17:18:19;8.70;99.90
37642;DHT22;23486;51.956;5.888;2023-02-11T17:20:44;8.60;99.90
37642;DHT22;23486;51.956;5.888;2023-02-11T17:23:10;8.50;99.90
37642;DHT22;23486;51.956;5.888;2023-02-11T17:25:36;8.50;99.90
37642;DHT22;23486;51.956;5.888;2023-02-11T17:28:03;8.40;99.90
37642;DHT22;23486;51.956;5.888;2023-02-11T17:30:35;8.40;99.90
37642;DHT22;23486;51.956;5.888;2023-02-11T17:33:00;8.30;99.90
37642;DHT22;23486;51.956;5.888;2023-02-11T17:35:32;8.30;99.90
37642;DHT22;23486;51.956;5.888;2023-02-11T17:38:00;8.20;99.90
37642;DHT22;23486;51.956;5.888;2023-02-11T17:40:26;8.20;99.90
37642;DHT22;23486;51.956;5.888;2023-02-11T17:42:52;8.20;99.90
37642;DHT22;23486;51.956;5.888;2023-02-11T17:45:17;8.10;99.90
37642;DHT22;23486;51.956;5.888;2023-02-11T17:47:43;8.00;99.90
37642;DHT22;23486;51.956;5.888;2023-02-11T17:50:09;7.90;99.90
37642;DHT22;23486;51.956;5.888;2023-02-11T17:52:35;7.90;99.90
37642;DHT22;23486;51.956;5.888;2023-02-11T17:55:04;7.80;99.90
37642;DHT22;23486;51.956;5.888;2023-02-11T17:57:30;7.80;99.90
37642;DHT22;23486;51.956;5.888;2023-02-11T17:59:56;7.80;99.90
37642;DHT22;23486;51.956;5.888;2023-02-11T18:02:21;7.70;99.90
37642;DHT22;23486;51.956;5.888;2023-02-11T18:04:47;7.70;99.90
37642;DHT22;23486;51.956;5.888;2023-02-11T18:07:13;7.60;99.90
37642;DHT22;23486;51.956;5.888;2023-02-11T18:09:39;7.60;99.90
37642;DHT22;23486;51.956;5.888;2023-02-11T18:12:06;7.50;99.90
37642;DHT22;23486;51.956;5.888;2023-02-11T18:14:32;7.50;99.90
37642;DHT22;23486;51.956;5.888;2023-02-11T18:16:58;7.50;99.90
37642;DHT22;23486;51.956;5.888;2023-02-11T18:19:24;7.50;99.90
37642;DHT22;23486;51.956;5.888;2023-02-11T18:21:50;7.50;99.90
37642;DHT22;23486;51.956;5.888;2023-02-11T18:24:16;7.60;99.90
37642;DHT22;23486;51.956;5.888;2023-02-11T18:26:42;7.50;99.90
37642;DHT22;23486;51.956;5.888;2023-02-11T18:29:08;7.60;99.90